Aviation Digital Data Service (ADDS)

Output produced by METARs form (1505 UTC 19 January 2019)
found at http://www.aviationweather.gov/metar/data/
 
Forecast for: DNYO (YOLA , NG)
Text: TAF DNYO 190940Z 1912/2018 11006KT CAVOK
Forecast period: 1200 UTC 19 January 2019 to 1800 UTC 20 January 2019
Forecast type: FROM: standard forecast or significant change
Winds: from the ESE (110 degrees) at 7 MPH (6 knots; 3.1 m/s)
Visibility: 6 or more miles 10+ km)
Ceiling: unknown
Clouds: missing
Weather: NSW  (no significant weather)